Time;durP1;ratioP1;P1;durP2;ratioP2;P2;SDS_P1;SDS_P2;PMS_P1;PMS_P2;Temp;Humidity;BMP_temperature;BMP_pressure;BME280_temperature;BME280_humidity;BME280_pressure;Samples;Min_cycle;Max_cycle;Signal;HPM_P1;HPM_P2
2022/07/27 00:01:27;;;;;;;5.10;1.40;;;13.00;99.90;;;;;;5074621;28;20448;-63
2022/07/27 00:03:53;;;;;;;1.38;1.00;;;13.00;99.90;;;;;;5074102;28;20035;-63
2022/07/27 00:06:18;;;;;;;4.13;1.50;;;12.90;99.90;;;;;;5092703;28;20044;-64
2022/07/27 00:08:44;;;;;;;5.53;1.20;;;12.90;99.90;;;;;;5073635;28;20474;-65
2022/07/27 00:11:10;;;;;;;5.32;2.00;;;12.80;99.90;;;;;;5072302;28;20101;-64
2022/07/27 00:13:36;;;;;;;2.35;1.10;;;12.80;99.90;;;;;;5091044;28;20051;-65
2022/07/27 00:19:47;;;;;;;3.05;1.20;;;12.90;99.90;;;;;;4873842;29;20052;-63
2022/07/27 00:22:12;;;;;;;3.00;1.05;;;12.90;99.90;;;;;;4857160;29;20060;-65
2022/07/27 00:24:38;;;;;;;5.20;1.23;;;12.80;99.90;;;;;;4858455;29;20057;-63
2022/07/27 00:27:04;;;;;;;3.55;1.15;;;12.80;99.90;;;;;;4858728;29;20131;-64
2022/07/27 00:29:29;;;;;;;4.35;1.30;;;12.80;99.90;;;;;;4855338;29;20414;-64
2022/07/27 00:31:55;;;;;;;2.17;1.00;;;12.80;99.90;;;;;;4870212;29;20048;-65
2022/07/27 00:34:20;;;;;;;4.95;1.45;;;12.80;99.90;;;;;;4875124;29;20045;-65
2022/07/27 00:36:46;;;;;;;4.80;1.00;;;12.80;99.90;;;;;;4874594;29;20096;-63
2022/07/27 00:39:12;;;;;;;2.72;0.90;;;12.80;99.90;;;;;;4857597;29;20053;-63
2022/07/27 00:41:37;;;;;;;2.53;0.95;;;12.80;99.90;;;;;;4856445;29;20285;-64
2022/07/27 00:44:05;;;;;;;3.17;1.30;;;12.70;99.90;;;;;;4858971;29;20096;-64
2022/07/27 00:46:32;;;;;;;5.55;1.42;;;12.70;99.90;;;;;;4858497;29;20119;-64
2022/07/27 00:48:58;;;;;;;3.00;1.10;;;12.70;99.90;;;;;;4844824;29;20067;-64
2022/07/27 00:51:24;;;;;;;3.55;1.10;;;12.70;99.90;;;;;;4860473;29;20108;-64
2022/07/27 00:53:54;;;;;;;3.70;1.15;;;12.70;99.90;;;;;;4857051;29;20052;-65
2022/07/27 00:56:21;;;;;;;3.58;0.93;;;12.80;99.90;;;;;;4966645;28;20048;-64
2022/07/27 00:58:49;;;;;;;4.00;2.00;;;12.70;99.90;;;;;;5073658;28;20036;-66
2022/07/27 01:01:17;;;;;;;2.92;1.55;;;12.80;99.90;;;;;;5073735;28;20039;-65
2022/07/27 01:03:44;;;;;;;3.88;1.30;;;12.80;99.90;;;;;;5072517;28;20044;-64
2022/07/27 01:06:11;;;;;;;3.80;1.30;;;12.90;99.90;;;;;;5077017;28;20040;-64
2022/07/27 01:08:37;;;;;;;3.67;1.23;;;12.80;99.90;;;;;;5072869;28;20036;-64
2022/07/27 01:11:03;;;;;;;4.97;1.35;;;12.90;99.90;;;;;;5091920;28;20044;-65
2022/07/27 01:13:29;;;;;;;3.72;1.30;;;12.90;99.90;;;;;;5072331;28;20402;-64
2022/07/27 01:15:56;;;;;;;3.08;1.30;;;13.00;99.90;;;;;;5056847;28;20044;-65
2022/07/27 01:18:31;;;;;;;3.28;1.27;;;12.90;99.90;;;;;;5072685;28;20075;-64
2022/07/27 01:20:58;;;;;;;3.58;1.50;;;13.00;99.90;;;;;;5091690;28;20031;-65
2022/07/27 01:23:24;;;;;;;2.85;1.20;;;13.10;99.90;;;;;;5072758;28;20102;-63
2022/07/27 01:25:50;;;;;;;3.10;1.05;;;13.10;99.90;;;;;;5095436;28;20057;-65
2022/07/27 01:28:16;;;;;;;2.40;0.90;;;13.10;99.90;;;;;;5087786;28;20035;-64
2022/07/27 01:30:41;;;;;;;3.28;1.30;;;13.10;99.90;;;;;;5091601;28;20044;-64
2022/07/27 01:33:08;;;;;;;2.75;1.17;;;13.10;99.90;;;;;;5088088;28;20051;-65
2022/07/27 01:35:35;;;;;;;4.38;1.08;;;13.10;99.90;;;;;;5090756;28;20089;-65
2022/07/27 01:38:02;;;;;;;2.10;1.10;;;13.20;99.90;;;;;;5070666;28;20073;-64
2022/07/27 01:40:28;;;;;;;4.97;1.20;;;13.20;99.90;;;;;;5072525;28;20032;-64
2022/07/27 01:42:54;;;;;;;3.95;1.05;;;13.20;99.90;;;;;;5072538;28;20039;-63
2022/07/27 01:45:20;;;;;;;3.35;1.15;;;13.20;99.90;;;;;;5069058;28;20032;-64
2022/07/27 01:47:46;;;;;;;3.10;1.25;;;13.20;99.90;;;;;;5072665;28;20422;-65
2022/07/27 01:50:12;;;;;;;4.07;1.10;;;13.20;99.90;;;;;;5070666;28;20055;-63
2022/07/27 01:52:38;;;;;;;3.28;1.25;;;13.10;99.90;;;;;;5090598;28;20052;-64
2022/07/27 01:55:06;;;;;;;3.30;1.30;;;13.10;99.90;;;;;;5072762;28;20517;-64
2022/07/27 01:57:32;;;;;;;4.60;1.10;;;13.10;99.90;;;;;;5088359;28;20548;-63
2022/07/27 01:59:57;;;;;;;3.95;0.90;;;13.10;99.90;;;;;;5070987;28;20067;-64
2022/07/27 02:02:23;;;;;;;4.32;1.15;;;13.00;99.90;;;;;;5072781;28;20453;-64
2022/07/27 02:04:48;;;;;;;5.78;1.17;;;13.00;99.90;;;;;;5070321;28;20044;-64
2022/07/27 02:07:14;;;;;;;4.75;1.40;;;12.90;99.90;;;;;;5070407;28;20450;-64
2022/07/27 02:09:40;;;;;;;4.68;1.20;;;12.90;99.90;;;;;;5072413;28;20069;-65
2022/07/27 02:14:49;;;;;;;2.78;1.20;;;12.80;99.90;;;;;;5089498;28;20051;-63
2022/07/27 02:17:15;;;;;;;3.58;1.48;;;12.70;99.90;;;;;;5072252;28;20039;-65
2022/07/27 02:19:40;;;;;;;3.40;1.30;;;12.70;99.90;;;;;;5072242;28;20036;-64
2022/07/27 02:22:06;;;;;;;4.45;1.40;;;12.70;99.90;;;;;;5072176;28;20046;-64
2022/07/27 02:24:32;;;;;;;3.40;1.23;;;12.70;99.90;;;;;;5090620;28;20139;-65
2022/07/27 02:26:57;;;;;;;4.68;1.40;;;12.70;99.90;;;;;;5072226;28;20096;-64
2022/07/27 02:29:23;;;;;;;3.10;1.95;;;12.70;99.90;;;;;;5072965;28;20121;-65
2022/07/27 02:31:48;;;;;;;2.35;1.27;;;12.70;99.90;;;;;;5071515;28;20044;-64
2022/07/27 02:34:14;;;;;;;3.42;1.23;;;12.60;99.90;;;;;;5072616;28;20051;-64
2022/07/27 02:36:40;;;;;;;4.28;1.50;;;12.60;99.90;;;;;;5070817;28;20717;-64
2022/07/27 02:39:05;;;;;;;3.65;1.23;;;12.70;99.90;;;;;;5073519;28;20120;-64
2022/07/27 02:41:31;;;;;;;3.08;1.77;;;12.60;99.90;;;;;;5072400;28;20048;-63
2022/07/27 02:43:56;;;;;;;3.40;1.30;;;12.60;99.90;;;;;;5090023;28;20052;-64
2022/07/27 02:46:22;;;;;;;3.13;1.70;;;12.60;99.90;;;;;;5071832;28;20036;-63
2022/07/27 02:48:47;;;;;;;2.03;1.25;;;12.50;99.90;;;;;;5086867;28;20111;-64
2022/07/27 02:51:13;;;;;;;3.85;1.20;;;12.50;99.90;;;;;;5088537;28;20343;-64
2022/07/27 02:53:39;;;;;;;3.03;1.52;;;12.50;99.90;;;;;;5089444;28;20084;-64
2022/07/27 02:56:05;;;;;;;3.33;1.23;;;12.40;99.90;;;;;;5072029;28;20466;-64
2022/07/27 02:58:31;;;;;;;2.35;1.30;;;12.40;99.90;;;;;;5072204;28;20048;-64
2022/07/27 03:00:57;;;;;;;3.70;1.70;;;12.30;99.90;;;;;;5056197;28;20078;-65
2022/07/27 03:03:22;;;;;;;2.95;1.30;;;12.20;99.90;;;;;;5072627;28;20040;-64
2022/07/27 03:05:48;;;;;;;2.28;1.23;;;12.20;99.90;;;;;;5071954;28;20040;-65
2022/07/27 03:08:14;;;;;;;4.65;1.33;;;12.20;99.90;;;;;;5071818;28;20723;-63
2022/07/27 03:10:40;;;;;;;3.28;1.40;;;12.10;99.90;;;;;;5071131;28;20066;-65
2022/07/27 03:13:06;;;;;;;3.33;1.38;;;12.10;99.90;;;;;;5071947;28;20051;-65
2022/07/27 03:15:33;;;;;;;3.58;1.55;;;12.00;99.90;;;;;;5072349;28;20076;-64
2022/07/27 03:17:59;;;;;;;4.10;1.38;;;12.00;99.90;;;;;;5069918;28;20044;-64
2022/07/27 03:20:25;;;;;;;2.63;1.20;;;11.90;99.90;;;;;;5071782;28;20036;-64
2022/07/27 03:22:50;;;;;;;4.72;1.60;;;11.90;99.90;;;;;;5079237;28;20517;-64
2022/07/27 03:25:16;;;;;;;2.42;1.50;;;11.90;99.90;;;;;;5070440;28;20186;-64
2022/07/27 03:27:41;;;;;;;5.50;1.88;;;11.90;99.90;;;;;;5069148;28;20135;-63
2022/07/27 03:30:08;;;;;;;2.42;1.55;;;11.80;99.90;;;;;;5086341;28;20084;-65
2022/07/27 03:32:33;;;;;;;3.10;1.35;;;11.80;99.90;;;;;;5074565;28;20032;-64
2022/07/27 03:34:59;;;;;;;3.75;1.48;;;11.80;99.90;;;;;;5072328;28;20459;-65
2022/07/27 03:37:24;;;;;;;3.67;1.42;;;11.70;99.90;;;;;;5074936;28;20051;-64
2022/07/27 03:39:50;;;;;;;2.80;1.60;;;11.70;99.90;;;;;;5072618;28;20401;-65
2022/07/27 03:42:16;;;;;;;2.95;1.48;;;11.70;99.90;;;;;;5072662;28;20059;-65
2022/07/27 03:44:42;;;;;;;2.70;1.67;;;11.60;99.90;;;;;;5074761;28;20510;-63
2022/07/27 03:47:07;;;;;;;4.10;1.70;;;11.60;99.90;;;;;;5074893;28;20044;-64
2022/07/27 03:49:33;;;;;;;4.40;1.60;;;11.60;99.90;;;;;;5098392;28;20031;-63
2022/07/27 03:51:59;;;;;;;2.88;1.95;;;11.60;99.90;;;;;;5091889;28;20040;-64
2022/07/27 03:54:25;;;;;;;4.43;2.08;;;11.60;99.90;;;;;;5070461;28;20523;-65
2022/07/27 03:56:50;;;;;;;4.05;2.30;;;11.60;99.90;;;;;;5091876;28;20040;-65
2022/07/27 03:59:16;;;;;;;2.92;1.63;;;11.60;99.90;;;;;;5081568;28;20035;-64
2022/07/27 04:01:41;;;;;;;4.22;1.75;;;11.50;99.90;;;;;;5097957;28;20036;-63
2022/07/27 04:04:07;;;;;;;5.63;1.73;;;11.60;99.90;;;;;;5074775;28;20394;-63
2022/07/27 04:06:33;;;;;;;1.67;1.27;;;11.60;99.90;;;;;;5073519;28;20094;-63
2022/07/27 04:08:58;;;;;;;2.50;1.38;;;11.60;99.90;;;;;;5075018;28;20501;-64
2022/07/27 04:11:24;;;;;;;2.00;1.48;;;11.50;99.90;;;;;;5074344;28;20062;-65
2022/07/27 04:13:50;;;;;;;4.72;1.52;;;11.50;99.90;;;;;;5057748;28;20052;-64
2022/07/27 04:16:16;;;;;;;3.13;1.63;;;11.50;99.90;;;;;;5075774;28;20481;-64
2022/07/27 04:18:42;;;;;;;3.65;1.67;;;11.50;99.90;;;;;;5091780;28;20073;-64
2022/07/27 04:21:08;;;;;;;3.30;2.10;;;11.60;99.90;;;;;;5073287;28;21235;-65
2022/07/27 04:23:34;;;;;;;4.82;2.03;;;11.60;99.90;;;;;;5091258;28;20056;-64
2022/07/27 04:26:00;;;;;;;3.13;1.70;;;11.60;99.90;;;;;;5075131;28;20478;-65
2022/07/27 04:28:26;;;;;;;4.82;1.80;;;11.60;99.90;;;;;;5057041;28;20077;-64
2022/07/27 04:30:52;;;;;;;4.90;1.95;;;11.70;99.90;;;;;;5074402;28;20036;-63
2022/07/27 04:33:18;;;;;;;3.70;1.95;;;11.60;99.90;;;;;;5074195;28;20047;-64
2022/07/27 04:35:44;;;;;;;4.88;1.83;;;11.60;99.90;;;;;;5075019;28;20397;-65
2022/07/27 04:38:09;;;;;;;3.67;1.63;;;11.60;99.90;;;;;;5074908;28;20039;-64
2022/07/27 04:40:35;;;;;;;5.30;1.70;;;11.60;99.90;;;;;;5074209;28;20068;-64
2022/07/27 04:43:02;;;;;;;5.47;1.38;;;11.60;99.90;;;;;;5089933;28;20433;-63
2022/07/27 04:45:28;;;;;;;2.38;1.60;;;11.60;99.90;;;;;;5056800;28;20079;-64
2022/07/27 04:47:54;;;;;;;4.95;1.92;;;11.60;99.90;;;;;;5091789;28;20072;-65
2022/07/27 04:50:20;;;;;;;2.63;1.50;;;11.60;99.90;;;;;;5073004;28;20109;-63
2022/07/27 04:52:45;;;;;;;4.53;1.42;;;11.60;99.90;;;;;;5105620;28;20042;-64
2022/07/27 04:55:11;;;;;;;4.35;1.58;;;11.70;99.90;;;;;;5091123;28;20043;-64
2022/07/27 04:57:40;;;;;;;3.58;1.63;;;11.70;99.90;;;;;;5073596;28;20048;-64
2022/07/27 05:00:07;;;;;;;4.25;2.10;;;11.80;99.90;;;;;;5072452;28;20062;-65
2022/07/27 05:02:33;;;;;;;5.40;1.70;;;11.80;99.90;;;;;;5091753;28;20409;-64
2022/07/27 05:04:59;;;;;;;4.72;1.45;;;11.90;99.90;;;;;;5073235;28;20036;-64
2022/07/27 05:07:25;;;;;;;3.22;1.52;;;12.00;99.90;;;;;;5073011;28;20043;-65
2022/07/27 05:09:51;;;;;;;3.78;1.50;;;12.10;99.90;;;;;;5074532;28;20036;-64
2022/07/27 05:12:16;;;;;;;3.95;1.50;;;12.10;99.90;;;;;;5073515;28;20040;-65
2022/07/27 05:14:42;;;;;;;4.18;1.70;;;12.20;99.90;;;;;;5071222;28;20079;-64
2022/07/27 05:17:08;;;;;;;4.70;1.58;;;12.30;99.90;;;;;;5073560;28;20448;-64
2022/07/27 05:19:33;;;;;;;3.65;1.70;;;12.30;99.90;;;;;;5070323;28;20070;-64
2022/07/27 05:21:59;;;;;;;6.65;1.67;;;12.40;99.90;;;;;;5056041;28;20097;-64
2022/07/27 05:24:25;;;;;;;2.70;1.73;;;12.50;99.90;;;;;;5068053;28;20426;-64
2022/07/27 05:26:51;;;;;;;2.08;1.35;;;12.50;99.90;;;;;;5073727;28;20040;-64
2022/07/27 05:29:17;;;;;;;4.80;1.90;;;12.60;99.90;;;;;;5071296;28;20048;-64
2022/07/27 05:31:43;;;;;;;4.10;2.05;;;12.70;99.90;;;;;;5085106;28;20051;-64
2022/07/27 05:34:09;;;;;;;3.22;1.65;;;12.70;99.90;;;;;;5070490;28;20561;-65
2022/07/27 05:36:34;;;;;;;3.67;1.95;;;12.80;99.90;;;;;;5089290;28;20035;-64
2022/07/27 05:39:00;;;;;;;4.43;1.88;;;12.90;99.90;;;;;;5070496;28;20048;-64
2022/07/27 05:41:26;;;;;;;4.78;1.60;;;12.90;99.90;;;;;;5088827;28;20070;-63
2022/07/27 05:43:55;;;;;;;6.20;2.10;;;13.00;99.90;;;;;;5088104;28;20044;-64
2022/07/27 05:46:21;;;;;;;4.20;1.55;;;13.00;99.90;;;;;;5064783;28;20072;-64
2022/07/27 05:48:47;;;;;;;3.67;1.70;;;13.10;99.90;;;;;;5067313;28;20466;-64
2022/07/27 05:51:13;;;;;;;6.50;2.17;;;13.10;99.90;;;;;;5069557;28;20170;-64
2022/07/27 05:53:38;;;;;;;2.72;1.67;;;13.20;99.90;;;;;;5071945;28;20393;-65
2022/07/27 05:56:06;;;;;;;3.72;1.80;;;13.20;99.90;;;;;;5088008;28;20032;-65
2022/07/27 05:58:32;;;;;;;4.15;1.90;;;13.30;99.90;;;;;;5072187;28;20378;-64
2022/07/27 06:00:58;;;;;;;4.95;1.67;;;13.40;99.90;;;;;;5072308;28;20043;-64
2022/07/27 06:03:24;;;;;;;7.78;1.70;;;13.50;99.90;;;;;;5090046;28;20032;-65
2022/07/27 06:05:49;;;;;;;6.65;1.70;;;13.60;99.90;;;;;;5088623;28;20489;-63
2022/07/27 06:08:15;;;;;;;4.13;1.30;;;13.60;99.90;;;;;;5090162;28;20106;-64
2022/07/27 06:10:41;;;;;;;3.70;1.50;;;13.70;99.90;;;;;;5067791;28;20058;-64
2022/07/27 06:13:08;;;;;;;5.05;1.60;;;13.70;99.90;;;;;;5089216;28;20036;-63
2022/07/27 06:15:35;;;;;;;8.35;1.67;;;13.80;99.90;;;;;;5084017;28;20071;-64
2022/07/27 06:18:02;;;;;;;5.00;1.60;;;13.90;99.90;;;;;;5071877;28;20382;-64
2022/07/27 06:20:29;;;;;;;5.95;1.30;;;14.00;99.90;;;;;;5054587;28;20122;-64
2022/07/27 06:23:02;;;;;;;3.85;1.38;;;14.10;99.90;;;;;;5069989;28;20040;-64
2022/07/27 06:25:32;;;;;;;6.45;1.77;;;14.10;99.90;;;;;;5088635;28;20398;-65
2022/07/27 06:27:57;;;;;;;6.38;1.52;;;14.20;99.90;;;;;;5074328;28;20035;-65
2022/07/27 06:30:23;;;;;;;4.40;1.50;;;14.20;99.90;;;;;;5070431;28;20406;-63
2022/07/27 06:32:49;;;;;;;2.80;1.25;;;14.20;99.90;;;;;;5069290;28;20051;-64
2022/07/27 06:35:15;;;;;;;6.70;1.40;;;14.30;99.90;;;;;;5088105;28;20031;-66
2022/07/27 06:37:43;;;;;;;5.65;1.55;;;14.40;99.90;;;;;;5071615;28;20036;-63
2022/07/27 06:40:13;;;;;;;7.03;1.40;;;14.40;99.90;;;;;;5071054;28;20037;-65
2022/07/27 06:42:39;;;;;;;8.45;1.90;;;14.40;99.90;;;;;;5068983;28;20135;-64
2022/07/27 06:45:06;;;;;;;6.85;1.92;;;14.50;99.90;;;;;;5067567;28;20067;-64
2022/07/27 06:47:32;;;;;;;2.53;1.35;;;14.50;99.90;;;;;;5069905;28;20134;-63
2022/07/27 06:49:58;;;;;;;4.18;1.30;;;14.50;99.90;;;;;;5074514;28;20066;-63
2022/07/27 06:52:23;;;;;;;7.22;1.27;;;14.50;99.90;;;;;;5087580;28;20048;-65
2022/07/27 06:54:49;;;;;;;4.32;1.40;;;14.60;99.90;;;;;;5091737;28;20374;-63
2022/07/27 06:57:15;;;;;;;3.67;1.73;;;14.60;99.90;;;;;;5100209;28;20046;-64
2022/07/27 06:59:41;;;;;;;4.90;1.30;;;14.60;99.90;;;;;;5098414;28;20036;-63
2022/07/27 07:02:07;;;;;;;5.38;1.60;;;14.70;99.90;;;;;;5084301;28;20055;-64
2022/07/27 07:04:32;;;;;;;2.88;1.17;;;14.80;99.90;;;;;;5086066;28;20051;-64
2022/07/27 07:07:00;;;;;;;11.07;1.92;;;14.90;99.90;;;;;;5086529;28;20040;-64
2022/07/27 07:09:29;;;;;;;7.43;1.40;;;14.90;99.90;;;;;;5075018;28;20097;-64
2022/07/27 07:11:55;;;;;;;6.45;1.88;;;15.00;99.90;;;;;;5068038;28;20036;-64
2022/07/27 07:14:22;;;;;;;5.18;1.10;;;15.10;99.90;;;;;;5093450;28;20111;-63
2022/07/27 07:16:48;;;;;;;4.22;1.50;;;15.30;99.90;;;;;;5073377;28;20044;-64
2022/07/27 07:19:14;;;;;;;4.85;1.40;;;15.40;99.90;;;;;;5087947;28;20072;-63
2022/07/27 07:21:39;;;;;;;3.42;1.17;;;15.50;99.90;;;;;;5076740;28;20386;-65
2022/07/27 07:24:05;;;;;;;3.60;1.40;;;15.70;99.90;;;;;;5088800;28;20052;-64
2022/07/27 07:26:31;;;;;;;3.60;1.35;;;15.80;99.90;;;;;;5092598;28;20052;-64
2022/07/27 07:28:58;;;;;;;6.85;1.75;;;15.90;99.90;;;;;;5076105;28;20031;-64
2022/07/27 07:31:23;;;;;;;3.75;1.30;;;16.10;99.90;;;;;;5084307;28;20036;-65
2022/07/27 07:33:49;;;;;;;9.68;1.40;;;16.20;99.90;;;;;;5072752;28;20517;-63
2022/07/27 07:36:15;;;;;;;6.43;1.52;;;16.40;99.90;;;;;;5072891;28;20051;-63
2022/07/27 07:38:42;;;;;;;9.38;1.45;;;16.50;99.90;;;;;;5086361;28;20130;-63
2022/07/27 07:41:07;;;;;;;5.70;1.35;;;16.70;99.90;;;;;;5090839;28;20039;-64
2022/07/27 07:43:35;;;;;;;6.63;1.73;;;16.80;99.90;;;;;;5091742;28;20040;-63
2022/07/27 07:46:01;;;;;;;5.03;1.20;;;17.00;99.90;;;;;;5073717;28;20119;-64
2022/07/27 07:48:27;;;;;;;5.88;1.35;;;17.10;99.90;;;;;;5077247;28;20123;-64
2022/07/27 07:50:52;;;;;;;2.75;0.88;;;17.10;99.90;;;;;;5089564;28;20048;-64
2022/07/27 07:53:22;;;;;;;5.22;1.23;;;17.20;99.90;;;;;;5077520;28;20039;-66
2022/07/27 07:55:48;;;;;;;4.03;0.88;;;17.30;99.90;;;;;;5084534;28;20051;-64
2022/07/27 07:58:13;;;;;;;5.55;1.00;;;17.30;99.90;;;;;;5105658;28;20088;-64
2022/07/27 08:00:40;;;;;;;4.90;0.90;;;17.50;99.90;;;;;;5075145;28;20035;-64
2022/07/27 08:03:06;;;;;;;5.88;1.08;;;17.70;99.90;;;;;;5076318;28;20036;-64
2022/07/27 08:05:32;;;;;;;5.28;1.00;;;17.80;99.90;;;;;;5084538;28;20073;-64
2022/07/27 08:07:58;;;;;;;4.70;1.15;;;18.00;99.90;;;;;;5079509;28;20097;-64
2022/07/27 08:10:24;;;;;;;5.20;0.93;;;18.20;99.90;;;;;;5076894;28;20043;-64
2022/07/27 08:12:52;;;;;;;2.55;0.70;;;18.30;99.90;;;;;;5084333;28;20046;-65
2022/07/27 08:15:18;;;;;;;5.55;1.27;;;18.30;99.90;;;;;;5077058;28;20119;-65
2022/07/27 08:17:44;;;;;;;4.68;1.10;;;18.40;99.90;;;;;;5093959;28;20386;-66
2022/07/27 08:20:12;;;;;;;6.47;1.15;;;18.60;99.90;;;;;;5073738;28;20132;-64
2022/07/27 08:22:38;;;;;;;6.35;1.02;;;18.80;99.90;;;;;;5073998;28;20051;-64
2022/07/27 08:25:04;;;;;;;4.65;1.00;;;18.90;99.90;;;;;;5050649;28;20037;-63
2022/07/27 08:27:30;;;;;;;4.93;0.90;;;19.10;99.90;;;;;;5050004;28;20536;-64
2022/07/27 08:29:56;;;;;;;4.97;0.90;;;19.10;99.90;;;;;;5048731;28;20049;-64
2022/07/27 08:32:22;;;;;;;3.38;0.70;;;19.20;99.90;;;;;;5050753;28;20122;-63
2022/07/27 08:34:47;;;;;;;1.52;0.60;;;19.30;99.90;;;;;;5048169;28;20052;-63
2022/07/27 08:37:13;;;;;;;5.72;1.00;;;19.40;99.90;;;;;;5051036;28;20076;-63
2022/07/27 08:39:39;;;;;;;4.35;0.80;;;19.50;99.90;;;;;;5048832;28;20172;-64
2022/07/27 08:42:08;;;;;;;3.03;0.90;;;19.50;99.90;;;;;;5049019;28;20071;-64
2022/07/27 08:44:34;;;;;;;5.25;0.90;;;19.70;99.90;;;;;;5050150;28;20048;-63
2022/07/27 08:47:01;;;;;;;3.90;0.80;;;19.70;99.90;;;;;;5051450;28;20037;-62
2022/07/27 08:49:29;;;;;;;4.68;0.90;;;19.50;99.90;;;;;;5050244;28;20075;-63
2022/07/27 08:51:55;;;;;;;2.55;0.63;;;19.40;99.80;;;;;;5047134;28;20487;-64
2022/07/27 08:54:21;;;;;;;4.82;0.60;;;19.50;99.90;;;;;;5049946;28;20048;-65
2022/07/27 08:56:47;;;;;;;5.28;1.02;;;19.50;99.60;;;;;;5048860;28;20486;-63
2022/07/27 08:59:12;;;;;;;3.13;0.90;;;20.00;99.90;;;;;;5033137;28;20052;-65
2022/07/27 09:01:38;;;;;;;3.80;1.00;;;20.10;98.80;;;;;;5047952;28;20071;-64
2022/07/27 09:04:06;;;;;;;3.63;0.70;;;20.00;97.40;;;;;;5049736;28;21052;-63
2022/07/27 09:06:45;;;;;;;3.00;0.90;;;20.10;99.10;;;;;;5050667;28;20119;-64
2022/07/27 09:09:12;;;;;;;5.05;0.90;;;20.40;99.50;;;;;;5060432;28;20538;-64
2022/07/27 09:11:39;;;;;;;3.13;0.88;;;20.70;99.60;;;;;;5047765;28;20048;-64
2022/07/27 09:14:06;;;;;;;3.60;0.80;;;21.00;99.60;;;;;;5048222;28;20048;-65
2022/07/27 09:16:33;;;;;;;4.03;0.82;;;21.20;98.50;;;;;;5050504;28;20131;-63
2022/07/27 09:19:02;;;;;;;2.45;1.00;;;21.50;98.70;;;;;;5049282;28;20506;-64
2022/07/27 09:21:27;;;;;;;3.92;0.80;;;21.30;98.10;;;;;;5048992;28;20037;-64
2022/07/27 09:24:09;;;;;;;3.28;0.85;;;21.20;97.30;;;;;;5069110;28;20524;-63
2022/07/27 09:26:35;;;;;;;5.45;1.35;;;20.70;97.40;;;;;;5070440;28;20052;-64
2022/07/27 09:29:01;;;;;;;3.30;0.82;;;20.50;97.70;;;;;;5068606;28;20408;-65
2022/07/27 09:31:27;;;;;;;4.75;0.90;;;20.70;98.00;;;;;;5070649;28;20032;-65
2022/07/27 09:33:55;;;;;;;2.17;0.80;;;20.80;97.50;;;;;;5090183;28;20035;-64
2022/07/27 09:36:24;;;;;;;4.50;0.73;;;20.60;97.30;;;;;;5091068;28;20038;-64
2022/07/27 09:39:01;;;;;;;2.88;0.85;;;20.30;97.80;;;;;;5090544;28;20035;-64
2022/07/27 09:41:38;;;;;;;1.65;0.60;;;20.00;97.90;;;;;;5072009;28;20453;-65
2022/07/27 09:44:04;;;;;;;2.58;0.70;;;19.80;98.60;;;;;;5070882;28;20571;-64
2022/07/27 09:46:35;;;;;;;3.53;1.17;;;19.50;99.40;;;;;;5071831;28;20046;-64
2022/07/27 09:49:02;;;;;;;5.93;1.27;;;19.20;99.90;;;;;;5088548;28;20406;-65
2022/07/27 09:51:28;;;;;;;2.55;0.80;;;19.00;99.90;;;;;;5072287;28;20097;-65
2022/07/27 09:53:56;;;;;;;4.22;0.90;;;18.80;99.90;;;;;;5070342;28;20711;-63
2022/07/27 09:56:32;;;;;;;4.63;1.00;;;18.50;99.90;;;;;;5075913;28;20124;-65
2022/07/27 09:59:00;;;;;;;5.60;1.00;;;18.30;99.90;;;;;;5077002;28;20047;-65
2022/07/27 10:01:34;;;;;;;4.70;1.30;;;18.30;99.90;;;;;;5093716;28;20050;-63
2022/07/27 10:04:05;;;;;;;3.97;1.10;;;18.20;99.90;;;;;;5071043;28;20044;-64
2022/07/27 10:06:31;;;;;;;3.42;1.25;;;18.20;99.90;;;;;;5072622;28;20048;-64
2022/07/27 10:08:58;;;;;;;3.53;1.08;;;18.20;99.90;;;;;;5090121;28;20059;-63
2022/07/27 10:11:25;;;;;;;6.40;1.25;;;18.20;99.90;;;;;;5072005;28;20032;-65
2022/07/27 10:13:52;;;;;;;4.90;0.95;;;18.30;99.90;;;;;;5055073;28;20063;-63
2022/07/27 10:16:22;;;;;;;5.32;0.82;;;18.40;99.90;;;;;;5073525;28;20047;-63
2022/07/27 10:19:28;;;;;;;3.00;0.90;;;18.50;99.90;;;;;;5092454;28;20053;-64
2022/07/27 10:21:53;;;;;;;4.80;0.90;;;18.70;99.90;;;;;;5075318;28;20048;-63
2022/07/27 10:24:25;;;;;;;4.95;0.90;;;19.40;99.90;;;;;;5071682;28;20089;-64
2022/07/27 10:26:51;;;;;;;3.40;0.80;;;20.00;99.90;;;;;;5072138;28;20047;-64
2022/07/27 10:29:19;;;;;;;6.50;1.10;;;20.60;99.90;;;;;;5072252;28;20048;-64
2022/07/27 10:31:54;;;;;;;4.07;0.82;;;20.90;99.90;;;;;;5072386;28;20115;-64
2022/07/27 10:34:41;;;;;;;2.30;0.70;;;20.80;99.90;;;;;;5071970;28;20047;-64
2022/07/27 10:37:27;;;;;;;6.25;0.70;;;20.60;99.60;;;;;;5072086;28;20055;-65
2022/07/27 10:42:44;;;;;;;3.05;0.80;;;20.40;99.90;;;;;;5094143;28;20047;-63
2022/07/27 10:45:11;;;;;;;4.20;0.82;;;20.30;99.90;;;;;;5075858;28;20509;-65
2022/07/27 10:47:45;;;;;;;2.03;0.77;;;20.20;99.90;;;;;;5093988;28;20451;-65
2022/07/27 10:50:14;;;;;;;3.28;0.70;;;20.20;99.90;;;;;;5075596;28;20074;-64
2022/07/27 10:52:41;;;;;;;2.13;0.73;;;20.20;99.70;;;;;;5072094;28;20044;-64
2022/07/27 10:55:07;;;;;;;4.30;0.88;;;20.10;99.70;;;;;;5078250;28;20047;-63
2022/07/27 10:57:35;;;;;;;3.63;0.80;;;19.90;99.40;;;;;;5091061;28;20044;-63
2022/07/27 11:00:07;;;;;;;1.92;0.60;;;19.80;99.40;;;;;;5072060;28;20740;-64
2022/07/27 11:02:41;;;;;;;2.67;0.90;;;19.60;99.60;;;;;;5093290;28;20432;-64
2022/07/27 11:05:07;;;;;;;3.88;0.90;;;19.60;99.90;;;;;;5073341;28;20036;-63
2022/07/27 11:07:33;;;;;;;4.22;0.93;;;19.60;99.90;;;;;;5071657;28;20044;-64
2022/07/27 11:10:00;;;;;;;4.13;1.05;;;19.70;99.90;;;;;;5074525;28;20036;-64
2022/07/27 11:12:29;;;;;;;5.60;0.90;;;19.80;99.90;;;;;;5092869;28;20024;-64
2022/07/27 11:14:57;;;;;;;2.35;0.70;;;20.00;99.90;;;;;;5074269;28;20508;-63
2022/07/27 11:17:26;;;;;;;4.05;1.15;;;20.20;99.90;;;;;;5070610;28;20032;-65
2022/07/27 11:19:59;;;;;;;5.18;0.85;;;20.30;99.80;;;;;;5091536;28;20036;-64
2022/07/27 11:22:33;;;;;;;2.22;0.65;;;20.40;99.90;;;;;;5073543;28;20093;-64
2022/07/27 11:25:00;;;;;;;2.75;0.93;;;20.40;99.20;;;;;;5072591;28;20150;-65
2022/07/27 11:27:26;;;;;;;4.43;0.73;;;20.40;99.50;;;;;;5092711;28;20040;-65
2022/07/27 11:29:52;;;;;;;3.67;1.08;;;20.50;99.20;;;;;;5073545;28;20118;-65
2022/07/27 11:32:19;;;;;;;2.42;0.80;;;20.50;99.80;;;;;;5075380;28;20040;-65
2022/07/27 11:34:46;;;;;;;5.72;0.80;;;20.50;99.70;;;;;;5091965;28;20035;-63
2022/07/27 11:37:17;;;;;;;3.17;0.80;;;20.60;99.10;;;;;;5073178;28;20101;-64
2022/07/27 11:39:43;;;;;;;3.00;0.85;;;20.50;99.10;;;;;;5093415;28;20040;-63
2022/07/27 11:42:10;;;;;;;4.15;1.10;;;20.50;99.30;;;;;;5073456;28;20062;-63
2022/07/27 11:44:37;;;;;;;2.08;0.70;;;20.50;99.20;;;;;;5072362;28;20055;-65
2022/07/27 11:47:03;;;;;;;1.38;0.70;;;20.60;99.40;;;;;;5090547;28;20077;-63
2022/07/27 11:49:31;;;;;;;3.92;0.93;;;20.90;99.40;;;;;;5078683;28;20040;-64
2022/07/27 11:51:59;;;;;;;4.47;0.98;;;21.10;99.40;;;;;;5090769;28;20405;-63
2022/07/27 11:54:27;;;;;;;3.80;0.85;;;21.30;99.10;;;;;;5056471;28;20036;-63
2022/07/27 11:57:01;;;;;;;5.32;0.80;;;21.30;97.50;;;;;;5073638;28;20489;-64
2022/07/27 11:59:31;;;;;;;1.73;0.80;;;21.20;96.90;;;;;;5074319;28;20567;-63
2022/07/27 12:01:58;;;;;;;3.78;0.80;;;21.10;96.40;;;;;;5074363;28;20082;-63
2022/07/27 12:04:32;;;;;;;3.60;0.70;;;20.90;96.70;;;;;;5073325;28;20036;-65
2022/07/27 12:07:03;;;;;;;3.15;0.90;;;20.80;97.00;;;;;;5074043;28;20063;-66
2022/07/27 12:09:31;;;;;;;3.17;0.85;;;20.40;96.90;;;;;;5092093;28;20066;-63
2022/07/27 12:11:59;;;;;;;2.72;0.90;;;20.20;97.50;;;;;;5092262;28;20032;-64
2022/07/27 12:14:33;;;;;;;2.35;0.73;;;19.90;98.20;;;;;;5073742;28;20682;-64
2022/07/27 12:17:15;;;;;;;2.85;0.90;;;19.70;98.20;;;;;;5073185;28;20136;-65
2022/07/27 12:19:41;;;;;;;3.95;0.85;;;19.50;98.80;;;;;;5071995;28;20575;-64
2022/07/27 12:22:08;;;;;;;6.78;1.33;;;19.20;98.60;;;;;;5078026;28;20040;-65
2022/07/27 12:24:39;;;;;;;5.72;1.00;;;19.00;98.70;;;;;;5062435;28;20130;-64
2022/07/27 12:27:13;;;;;;;5.30;0.95;;;18.90;98.90;;;;;;5069788;28;20112;-64
2022/07/27 12:29:58;;;;;;;4.65;0.70;;;18.90;99.20;;;;;;5056900;28;20130;-64
2022/07/27 12:32:24;;;;;;;2.17;0.63;;;18.90;99.40;;;;;;5072635;28;20066;-63
2022/07/27 12:34:50;;;;;;;2.08;0.60;;;18.90;99.50;;;;;;5072359;28;20390;-64
2022/07/27 12:37:16;;;;;;;3.80;0.90;;;18.90;99.40;;;;;;5090032;28;20047;-64
2022/07/27 12:39:44;;;;;;;3.20;0.73;;;19.00;99.40;;;;;;5073339;28;20040;-63
2022/07/27 12:42:11;;;;;;;6.30;1.05;;;19.00;98.70;;;;;;5070467;28;20387;-64
2022/07/27 12:44:40;;;;;;;4.25;0.90;;;19.10;99.20;;;;;;5088561;28;20061;-64
2022/07/27 12:50:06;;;;;;;3.42;0.85;;;19.40;99.20;;;;;;5085912;28;20042;-62
2022/07/27 12:52:35;;;;;;;2.10;0.70;;;19.50;99.20;;;;;;5090524;28;20105;-64
2022/07/27 12:55:01;;;;;;;2.67;0.68;;;19.50;99.20;;;;;;5072449;28;20036;-64
2022/07/27 12:57:27;;;;;;;1.60;0.73;;;19.60;98.50;;;;;;5071475;28;20051;-63
2022/07/27 12:59:53;;;;;;;3.60;0.80;;;19.60;97.90;;;;;;5070919;28;20051;-64